Time;durP1;ratioP1;P1;durP2;ratioP2;P2;SDS_P1;SDS_P2;PMS_P1;PMS_P2;Temp;Humidity;BMP_temperature;BMP_pressure;BME280_temperature;BME280_humidity;BME280_pressure;Samples;Min_cycle;Max_cycle;Signal;HPM_P1;HPM_P2
2022/05/03 00:00:11;;;;;;;1.65;1.30;;;;;;;;;;7409594;19;19999;-80
2022/05/03 00:02:55;;;;;;;2.10;1.30;;;;;;;;;;7408548;19;20040;-80
2022/05/03 00:05:41;;;;;;;1.88;1.20;;;;;;;;;;7406887;19;20072;-81
2022/05/03 00:08:11;;;;;;;;;;;;;;;;;;7410313;19;19995;-79
2022/05/03 00:10:50;;;;;;;2.22;1.30;;;;;;;;;;7410585;19;19918;-80
2022/05/03 00:13:19;;;;;;;1.55;1.33;;;;;;;;;;7407849;19;20014;-80
2022/05/03 00:15:45;;;;;;;2.35;1.70;;;;;;;;;;7411180;19;20014;-81
2022/05/03 00:18:11;;;;;;;3.05;1.30;;;;;;;;;;7407236;19;20484;-81
2022/05/03 00:20:37;;;;;;;2.10;1.20;;;;;;;;;;7412065;19;20092;-80
2022/05/03 00:23:02;;;;;;;1.95;1.40;;;;;;;;;;7410412;19;20019;-82
2022/05/03 00:25:29;;;;;;;1.98;1.60;;;;;;;;;;7408444;19;20015;-79
2022/05/03 00:27:54;;;;;;;3.53;1.70;;;;;;;;;;7408086;19;20003;-81
2022/05/03 00:30:20;;;;;;;1.80;1.63;;;;;;;;;;7408506;19;20173;-82
2022/05/03 00:32:47;;;;;;;1.90;1.50;;;;;;;;;;7410503;19;20010;-80
2022/05/03 00:35:13;;;;;;;2.78;1.60;;;;;;;;;;7408211;19;20015;-80
2022/05/03 00:37:38;;;;;;;5.13;1.77;;;;;;;;;;7408761;19;20026;-80
2022/05/03 00:40:04;;;;;;;3.05;1.50;;;;;;;;;;7404258;19;20765;-80
2022/05/03 00:42:49;;;;;;;1.90;1.50;;;;;;;;;;7409139;19;20014;-79
2022/05/03 00:45:49;;;;;;;2.85;1.60;;;;;;;;;;7407286;19;20066;-80
2022/05/03 00:48:36;;;;;;;1.30;1.20;;;;;;;;;;7412419;19;20066;-79
2022/05/03 00:51:05;;;;;;;1.58;1.48;;;;;;;;;;7408703;19;20460;-80
2022/05/03 00:53:43;;;;;;;1.70;1.40;;;;;;;;;;7409467;19;20010;-80
2022/05/03 00:56:30;;;;;;;2.72;1.50;;;;;;;;;;7406933;19;20102;-79
2022/05/03 00:59:16;;;;;;;2.95;1.88;;;;;;;;;;7404989;19;20036;-81
2022/05/03 01:02:03;;;;;;;2.80;1.40;;;;;;;;;;7408978;19;20037;-80
2022/05/03 01:04:56;;;;;;;6.55;2.15;;;;;;;;;;7408628;19;20333;-80
2022/05/03 01:07:32;;;;;;;1.80;1.45;;;;;;;;;;7409190;19;20010;-81
2022/05/03 01:10:25;;;;;;;2.38;1.70;;;;;;;;;;7407681;19;20460;-80
2022/05/03 01:12:51;;;;;;;1.58;1.48;;;;;;;;;;7402547;19;20023;-80
2022/05/03 01:15:23;;;;;;;2.00;1.65;;;;;;;;;;7405040;19;19999;-81
2022/05/03 01:17:59;;;;;;;2.97;1.40;;;;;;;;;;7408029;19;20014;-80
2022/05/03 01:20:50;;;;;;;1.60;1.20;;;;;;;;;;7422218;19;20010;-82
2022/05/03 01:23:57;;;;;;;1.75;1.63;;;;;;;;;;7422620;19;19999;-82
2022/05/03 01:26:38;;;;;;;1.77;1.48;;;;;;;;;;7423928;19;20027;-83
2022/05/03 01:29:32;;;;;;;2.03;1.25;;;;;;;;;;7426063;19;20006;-82
2022/05/03 01:32:02;;;;;;;2.15;1.60;;;;;;;;;;7409326;19;20010;-80
2022/05/03 01:34:29;;;;;;;3.40;1.80;;;;;;;;;;7411123;19;20003;-81
2022/05/03 01:37:00;;;;;;;2.00;1.38;;;;;;;;;;7409301;19;20035;-81
2022/05/03 01:39:38;;;;;;;2.15;1.77;;;;;;;;;;7407530;19;20038;-80
2022/05/03 01:42:12;;;;;;;2.58;1.90;;;;;;;;;;7409614;19;20039;-81
2022/05/03 01:44:50;;;;;;;2.97;1.70;;;;;;;;;;7409420;19;20587;-80
2022/05/03 01:47:27;;;;;;;3.55;1.70;;;;;;;;;;7409484;19;20127;-81
2022/05/03 01:50:20;;;;;;;1.50;1.40;;;;;;;;;;7412657;19;20003;-81
2022/05/03 01:53:02;;;;;;;2.50;1.92;;;;;;;;;;7411087;19;20088;-80
2022/05/03 01:55:41;;;;;;;1.75;1.40;;;;;;;;;;7409562;19;20086;-81
2022/05/03 01:58:29;;;;;;;4.72;1.85;;;;;;;;;;7408697;19;20011;-79
2022/05/03 02:01:17;;;;;;;2.25;1.70;;;;;;;;;;7407941;19;20010;-81
2022/05/03 02:03:50;;;;;;;2.85;1.65;;;;;;;;;;7410868;19;19998;-81
2022/05/03 02:06:18;;;;;;;2.22;1.70;;;;;;;;;;7410928;19;20478;-81
2022/05/03 02:09:06;;;;;;;2.08;1.60;;;;;;;;;;7413339;19;20014;-81
2022/05/03 02:12:04;;;;;;;2.72;1.95;;;;;;;;;;7409724;19;20010;-79
2022/05/03 02:14:46;;;;;;;2.90;2.00;;;;;;;;;;7414952;19;20002;-81
2022/05/03 02:17:30;;;;;;;3.55;1.80;;;;;;;;;;7413423;19;20087;-82
2022/05/03 02:19:58;;;;;;;3.33;1.60;;;;;;;;;;7411476;19;20010;-81
2022/05/03 02:22:44;;;;;;;2.78;1.90;;;;;;;;;;7413834;19;20014;-81
2022/05/03 02:25:12;;;;;;;;;;;;;;;;;;7416306;19;20018;-80
2022/05/03 02:27:42;;;;;;;2.85;1.63;;;;;;;;;;7417720;19;19943;-80
2022/05/03 02:30:08;;;;;;;2.13;1.77;;;;;;;;;;7402540;19;20943;-81
2022/05/03 02:32:46;;;;;;;3.88;2.20;;;;;;;;;;7406588;19;20067;-80
2022/05/03 02:35:19;;;;;;;1.88;1.60;;;;;;;;;;7406927;19;20040;-80
2022/05/03 02:37:48;;;;;;;2.20;2.00;;;;;;;;;;7407672;19;20003;-81
2022/05/03 02:40:18;;;;;;;2.17;1.40;;;;;;;;;;7407515;19;20010;-81
2022/05/03 02:42:44;;;;;;;2.35;1.83;;;;;;;;;;7406779;19;20007;-80
2022/05/03 02:45:11;;;;;;;1.85;1.60;;;;;;;;;;7409264;19;20011;-81
2022/05/03 02:47:42;;;;;;;2.20;1.60;;;;;;;;;;7407999;19;20040;-80
2022/05/03 02:50:11;;;;;;;1.42;1.15;;;;;;;;;;7403201;19;19999;-80
2022/05/03 02:52:58;;;;;;;3.40;1.80;;;;;;;;;;7407489;19;20138;-80
2022/05/03 02:55:40;;;;;;;1.60;1.50;;;;;;;;;;7404538;19;20043;-81
2022/05/03 02:58:37;;;;;;;1.38;1.20;;;;;;;;;;7410036;19;20039;-80
2022/05/03 03:04:15;;;;;;;3.47;1.70;;;;;;;;;;7409741;19;20099;-79
2022/05/03 03:06:43;;;;;;;2.10;1.90;;;;;;;;;;7405113;19;20013;-80
2022/05/03 03:09:09;;;;;;;2.33;1.92;;;;;;;;;;7406526;19;20034;-80
2022/05/03 03:11:58;;;;;;;2.88;1.92;;;;;;;;;;7407083;19;20019;-80
2022/05/03 03:14:53;;;;;;;1.63;1.40;;;;;;;;;;7407976;19;20016;-79
2022/05/03 03:17:24;;;;;;;2.45;1.90;;;;;;;;;;7405702;19;20487;-81
2022/05/03 03:20:09;;;;;;;3.20;2.33;;;;;;;;;;7405043;19;20009;-80
2022/05/03 03:22:46;;;;;;;3.47;2.00;;;;;;;;;;7404680;19;20018;-81
2022/05/03 03:25:17;;;;;;;3.05;2.17;;;;;;;;;;7405769;19;20046;-81
2022/05/03 03:27:44;;;;;;;2.33;1.90;;;;;;;;;;7402237;19;20022;-80
2022/05/03 03:30:11;;;;;;;3.20;2.28;;;;;;;;;;7407531;19;20007;-80
2022/05/03 03:32:38;;;;;;;4.30;2.42;;;;;;;;;;7402995;19;20021;-81
2022/05/03 03:35:04;;;;;;;3.63;2.30;;;;;;;;;;7396786;19;20027;-81
2022/05/03 03:37:33;;;;;;;3.92;2.33;;;;;;;;;;7401078;19;20018;-79
2022/05/03 03:39:59;;;;;;;2.80;2.15;;;;;;;;;;7404763;19;20033;-80
2022/05/03 03:42:28;;;;;;;3.08;2.55;;;;;;;;;;7408076;19;20563;-80
2022/05/03 03:44:58;;;;;;;4.03;2.15;;;;;;;;;;7412561;19;20018;-81
2022/05/03 03:47:24;;;;;;;2.78;2.22;;;;;;;;;;7411739;19;20018;-80
2022/05/03 03:49:50;;;;;;;3.58;2.33;;;;;;;;;;7413055;19;20134;-81
2022/05/03 03:52:15;;;;;;;2.05;1.60;;;;;;;;;;7410596;19;20115;-80
2022/05/03 03:54:41;;;;;;;3.05;2.28;;;;;;;;;;7412721;19;20723;-80
2022/05/03 03:57:07;;;;;;;5.75;2.63;;;;;;;;;;7414029;19;20052;-80
2022/05/03 03:59:33;;;;;;;3.15;2.60;;;;;;;;;;7410991;19;20003;-81
2022/05/03 04:01:59;;;;;;;2.13;1.80;;;;;;;;;;7407812;19;20039;-80
2022/05/03 04:04:36;;;;;;;4.28;2.40;;;;;;;;;;7411470;19;20010;-80
2022/05/03 04:07:01;;;;;;;3.63;2.70;;;;;;;;;;7410236;19;20014;-80
2022/05/03 04:09:28;;;;;;;2.88;2.50;;;;;;;;;;7408011;19;20450;-81
2022/05/03 04:11:53;;;;;;;4.95;2.47;;;;;;;;;;7412083;19;19998;-80
2022/05/03 04:14:19;;;;;;;3.08;2.08;;;;;;;;;;7408784;19;19999;-80
2022/05/03 04:16:45;;;;;;;3.72;2.40;;;;;;;;;;7409483;19;20018;-80
2022/05/03 04:19:12;;;;;;;4.13;2.45;;;;;;;;;;7408801;19;20003;-80
2022/05/03 04:21:38;;;;;;;3.97;2.22;;;;;;;;;;7410481;19;20013;-81
2022/05/03 04:24:03;;;;;;;5.38;2.63;;;;;;;;;;7410271;19;20071;-80
2022/05/03 04:26:29;;;;;;;3.53;2.63;;;;;;;;;;7410962;19;20003;-80
2022/05/03 04:29:01;;;;;;;2.55;2.10;;;;;;;;;;7409762;19;20019;-80
2022/05/03 04:31:33;;;;;;;2.42;1.73;;;;;;;;;;7410817;19;20027;-81
2022/05/03 04:34:02;;;;;;;3.65;2.63;;;;;;;;;;7408831;19;20022;-80
2022/05/03 04:36:29;;;;;;;3.38;2.38;;;;;;;;;;7407920;19;20407;-81
2022/05/03 04:38:55;;;;;;;3.90;2.90;;;;;;;;;;7406997;19;20129;-79
2022/05/03 04:41:23;;;;;;;5.20;2.70;;;;;;;;;;7408386;19;20075;-79
2022/05/03 04:43:49;;;;;;;5.20;2.40;;;;;;;;;;7410515;19;20017;-80
2022/05/03 04:46:14;;;;;;;4.00;3.00;;;;;;;;;;7405044;19;20006;-81
2022/05/03 04:48:40;;;;;;;3.05;2.58;;;;;;;;;;7408891;19;20027;-80
2022/05/03 04:51:06;;;;;;;3.85;2.85;;;;;;;;;;7406273;19;20010;-79
2022/05/03 04:53:32;;;;;;;3.20;2.88;;;;;;;;;;7404271;19;20018;-79
2022/05/03 04:55:58;;;;;;;4.30;3.28;;;;;;;;;;7405321;19;20099;-80
2022/05/03 04:58:23;;;;;;;4.43;3.88;;;;;;;;;;7408923;19;19991;-80
2022/05/03 05:00:49;;;;;;;8.27;3.85;;;;;;;;;;7403975;19;20022;-79
2022/05/03 05:03:14;;;;;;;4.03;3.40;;;;;;;;;;7406810;19;20029;-80
2022/05/03 05:05:39;;;;;;;5.78;3.83;;;;;;;;;;7407584;19;20039;-79
2022/05/03 05:08:06;;;;;;;4.63;3.42;;;;;;;;;;7409123;19;20018;-79
2022/05/03 05:10:32;;;;;;;5.30;3.65;;;;;;;;;;7407033;19;20046;-79
2022/05/03 05:13:00;;;;;;;8.23;4.55;;;;;;;;;;7409733;19;20007;-79
2022/05/03 05:15:25;;;;;;;6.32;3.65;;;;;;;;;;7407640;19;20058;-80
2022/05/03 05:17:52;;;;;;;4.60;3.45;;;;;;;;;;7409925;19;20157;-78
2022/05/03 05:20:18;;;;;;;4.63;3.53;;;;;;;;;;7405839;19;20018;-79
2022/05/03 05:22:44;;;;;;;5.68;3.40;;;;;;;;;;7405627;19;20018;-79
2022/05/03 05:25:09;;;;;;;4.82;3.42;;;;;;;;;;7404718;19;20021;-79
2022/05/03 05:27:35;;;;;;;6.30;4.47;;;;;;;;;;7407746;19;20022;-79
2022/05/03 05:30:01;;;;;;;6.53;4.35;;;;;;;;;;7408988;19;20027;-78
2022/05/03 05:32:26;;;;;;;5.90;3.50;;;;;;;;;;7403325;19;20271;-78
2022/05/03 05:34:51;;;;;;;6.50;4.22;;;;;;;;;;7403521;19;20039;-78
2022/05/03 05:37:16;;;;;;;6.18;4.03;;;;;;;;;;7404111;19;20006;-79
2022/05/03 05:39:42;;;;;;;6.50;3.70;;;;;;;;;;7405553;19;19999;-78
2022/05/03 05:42:07;;;;;;;3.97;2.90;;;;;;;;;;7406508;19;20039;-79
2022/05/03 05:44:32;;;;;;;7.32;3.80;;;;;;;;;;7409082;19;20019;-79
2022/05/03 05:46:58;;;;;;;4.90;3.50;;;;;;;;;;7404604;19;20111;-79
2022/05/03 05:49:23;;;;;;;7.45;4.05;;;;;;;;;;7407852;19;20040;-79
2022/05/03 05:51:48;;;;;;;3.83;2.95;;;;;;;;;;7406702;19;20024;-79
2022/05/03 05:54:16;;;;;;;7.75;4.13;;;;;;;;;;7405552;19;20058;-79
2022/05/03 05:56:42;;;;;;;4.60;4.10;;;;;;;;;;7407107;19;20003;-78
2022/05/03 05:59:07;;;;;;;6.60;4.35;;;;;;;;;;7407340;19;20006;-79
2022/05/03 06:01:40;;;;;;;5.40;4.05;;;;;;;;;;7404282;19;20436;-79
2022/05/03 06:04:06;;;;;;;6.47;4.10;;;;;;;;;;7401830;19;20006;-79
2022/05/03 06:06:32;;;;;;;7.30;3.45;;;;;;;;;;7406173;19;20002;-79
2022/05/03 06:08:59;;;;;;;5.85;3.65;;;;;;;;;;7405215;19;20014;-79
2022/05/03 06:11:24;;;;;;;5.18;3.40;;;;;;;;;;7407444;19;20014;-79
2022/05/03 06:13:49;;;;;;;6.32;3.30;;;;;;;;;;7407537;19;20025;-79
2022/05/03 06:16:15;;;;;;;5.10;3.33;;;;;;;;;;7408216;19;20139;-78
2022/05/03 06:18:41;;;;;;;6.38;3.63;;;;;;;;;;7405685;19;20006;-79
2022/05/03 06:21:09;;;;;;;2.97;2.55;;;;;;;;;;7407436;19;20006;-79
2022/05/03 06:23:35;;;;;;;6.25;4.00;;;;;;;;;;7406053;19;20003;-78
2022/05/03 06:26:01;;;;;;;5.50;3.30;;;;;;;;;;7406872;19;20011;-79
2022/05/03 06:28:26;;;;;;;4.40;3.63;;;;;;;;;;7406468;19;20010;-78
2022/05/03 06:30:52;;;;;;;5.35;3.97;;;;;;;;;;7407455;19;20052;-77
2022/05/03 06:33:17;;;;;;;5.90;3.80;;;;;;;;;;7396290;19;20002;-77
2022/05/03 06:35:42;;;;;;;4.78;3.40;;;;;;;;;;7393338;19;20006;-78
2022/05/03 06:38:10;;;;;;;5.80;3.83;;;;;;;;;;7394918;19;20018;-77
2022/05/03 06:40:35;;;;;;;3.40;3.03;;;;;;;;;;7399294;19;20127;-78
2022/05/03 06:43:01;;;;;;;3.95;3.10;;;;;;;;;;7394488;19;20011;-78
2022/05/03 06:45:26;;;;;;;3.85;3.10;;;;;;;;;;7394451;19;20031;-77
2022/05/03 06:47:51;;;;;;;4.43;2.67;;;;;;;;;;7396877;19;20042;-78
2022/05/03 06:50:17;;;;;;;3.33;3.00;;;;;;;;;;7392784;19;20005;-79
2022/05/03 06:52:43;;;;;;;3.50;2.67;;;;;;;;;;7393889;19;20002;-77
2022/05/03 06:55:09;;;;;;;3.55;3.17;;;;;;;;;;7391567;19;20010;-77
2022/05/03 06:57:35;;;;;;;4.50;3.00;;;;;;;;;;7397086;19;20009;-77
2022/05/03 07:00:02;;;;;;;4.53;3.50;;;;;;;;;;7392609;19;20003;-77
2022/05/03 07:02:32;;;;;;;4.78;3.20;;;;;;;;;;7396188;19;20011;-77
2022/05/03 07:04:59;;;;;;;3.95;3.40;;;;;;;;;;7392645;19;20001;-77
2022/05/03 07:07:26;;;;;;;5.75;3.20;;;;;;;;;;7391751;19;20435;-77
2022/05/03 07:09:51;;;;;;;4.80;3.00;;;;;;;;;;7395114;19;20002;-78
2022/05/03 07:12:16;;;;;;;4.97;3.08;;;;;;;;;;7393814;19;20010;-77
2022/05/03 07:14:41;;;;;;;6.50;3.42;;;;;;;;;;7394265;19;20029;-77
2022/05/03 07:17:06;;;;;;;4.32;3.33;;;;;;;;;;7404136;19;20035;-77
2022/05/03 07:25:00;;;;;;;4.20;3.08;;;;;;;;;;7400703;19;20008;-77
2022/05/03 07:27:25;;;;;;;3.67;3.28;;;;;;;;;;7402513;19;20022;-77
2022/05/03 07:29:50;;;;;;;7.22;3.85;;;;;;;;;;7400476;19;20013;-77
2022/05/03 07:32:16;;;;;;;6.28;3.80;;;;;;;;;;7402056;19;20027;-79
2022/05/03 07:34:41;;;;;;;4.93;3.50;;;;;;;;;;7395996;19;20585;-77
2022/05/03 07:37:07;;;;;;;5.65;3.75;;;;;;;;;;7400520;19;20165;-77
2022/05/03 07:39:32;;;;;;;4.50;3.70;;;;;;;;;;7396886;19;19993;-78
2022/05/03 07:41:57;;;;;;;6.25;4.07;;;;;;;;;;7397738;19;20002;-78
2022/05/03 07:44:23;;;;;;;5.72;4.05;;;;;;;;;;7399437;19;20023;-77
2022/05/03 07:46:48;;;;;;;9.15;4.60;;;;;;;;;;7395377;19;20489;-78
2022/05/03 07:49:14;;;;;;;5.45;4.07;;;;;;;;;;7400218;19;20340;-78
2022/05/03 07:51:41;;;;;;;4.85;3.47;;;;;;;;;;7397334;19;20002;-77
2022/05/03 07:54:06;;;;;;;4.13;3.63;;;;;;;;;;7398014;19;20010;-77
2022/05/03 07:56:32;;;;;;;6.47;3.67;;;;;;;;;;7394230;19;20722;-77
2022/05/03 07:58:57;;;;;;;5.18;3.80;;;;;;;;;;7397494;19;20020;-77
2022/05/03 08:01:22;;;;;;;10.48;4.40;;;;;;;;;;7396632;19;20324;-77
2022/05/03 08:03:47;;;;;;;5.38;3.58;;;;;;;;;;7397046;19;20010;-77
2022/05/03 08:06:13;;;;;;;5.47;3.53;;;;;;;;;;7394969;19;19998;-78
2022/05/03 08:08:38;;;;;;;5.93;3.90;;;;;;;;;;7395493;19;20329;-78
2022/05/03 08:11:04;;;;;;;3.50;3.03;;;;;;;;;;7396956;19;20054;-78
2022/05/03 08:13:29;;;;;;;3.38;2.95;;;;;;;;;;7396882;19;20003;-78
2022/05/03 08:15:55;;;;;;;3.60;2.83;;;;;;;;;;7402909;19;19998;-78
2022/05/03 08:18:20;;;;;;;6.22;4.00;;;;;;;;;;7423486;19;20031;-78
2022/05/03 08:20:46;;;;;;;3.85;3.47;;;;;;;;;;7422755;19;20032;-79
2022/05/03 08:23:11;;;;;;;3.53;3.22;;;;;;;;;;7426100;19;20014;-80
2022/05/03 08:25:39;;;;;;;4.53;3.67;;;;;;;;;;7418430;19;20020;-79
2022/05/03 08:28:05;;;;;;;4.93;4.05;;;;;;;;;;7400444;19;20025;-78
2022/05/03 08:30:30;;;;;;;4.63;3.65;;;;;;;;;;7400443;19;19998;-77
2022/05/03 08:32:56;;;;;;;3.97;3.47;;;;;;;;;;7398713;19;20010;-78
2022/05/03 08:35:24;;;;;;;3.58;3.05;;;;;;;;;;7401849;19;20085;-78
2022/05/03 08:43:17;;;;;;;4.38;3.40;;;;;;;;;;7404845;19;20026;-79
2022/05/03 08:45:48;;;;;;;4.07;3.20;;;;;;;;;;7397938;19;20340;-77
2022/05/03 08:48:16;;;;;;;4.97;3.00;;;;;;;;;;7396629;19;20467;-77
2022/05/03 08:50:41;;;;;;;4.97;3.70;;;;;;;;;;7398322;19;20045;-77
2022/05/03 08:53:07;;;;;;;7.82;3.58;;;;;;;;;;7394987;19;20370;-77
2022/05/03 08:55:33;;;;;;;3.45;3.13;;;;;;;;;;7396399;19;20010;-77
2022/05/03 08:57:58;;;;;;;6.80;3.85;;;;;;;;;;7399040;19;20003;-77
2022/05/03 09:00:25;;;;;;;7.40;4.13;;;;;;;;;;7398953;19;20028;-77
2022/05/03 09:02:55;;;;;;;5.18;3.38;;;;;;;;;;7398133;19;20110;-78
2022/05/03 09:05:22;;;;;;;6.20;3.45;;;;;;;;;;7395387;19;20002;-77
2022/05/03 09:07:56;;;;;;;7.07;3.72;;;;;;;;;;7394361;19;20090;-77
2022/05/03 09:10:31;;;;;;;4.07;3.30;;;;;;;;;;7394489;19;20186;-77
2022/05/03 09:13:11;;;;;;;5.55;3.90;;;;;;;;;;7397223;19;20011;-77
2022/05/03 09:15:37;;;;;;;4.90;3.55;;;;;;;;;;7397522;19;20034;-77
2022/05/03 09:18:02;;;;;;;5.30;3.58;;;;;;;;;;7395594;19;19998;-77
2022/05/03 09:26:23;;;;;;;3.97;3.47;;;;;;;;;;7396892;19;20036;-77
2022/05/03 09:28:49;;;;;;;5.05;3.15;;;;;;;;;;7398707;19;20010;-77
2022/05/03 09:31:43;;;;;;;3.70;2.97;;;;;;;;;;7395644;19;20388;-77
2022/05/03 09:34:23;;;;;;;5.82;3.22;;;;;;;;;;7395668;19;20470;-78
2022/05/03 09:36:54;;;;;;;5.15;3.30;;;;;;;;;;7394910;19;20021;-77
2022/05/03 09:39:22;;;;;;;4.00;3.22;;;;;;;;;;7392962;19;19990;-77
2022/05/03 09:42:06;;;;;;;4.80;3.28;;;;;;;;;;7401481;19;20003;-77
2022/05/03 09:44:36;;;;;;;3.58;3.28;;;;;;;;;;7399426;19;20019;-78
2022/05/03 09:47:05;;;;;;;3.92;3.30;;;;;;;;;;7402673;19;20015;-78
2022/05/03 09:49:38;;;;;;;5.32;3.47;;;;;;;;;;7399194;19;20003;-77
2022/05/03 09:52:05;;;;;;;4.13;3.10;;;;;;;;;;7401683;19;20010;-78
2022/05/03 09:54:47;;;;;;;3.30;3.00;;;;;;;;;;7399983;19;20078;-77
2022/05/03 09:57:27;;;;;;;3.33;2.75;;;;;;;;;;7399016;19;20066;-78
2022/05/03 09:59:54;;;;;;;5.68;3.03;;;;;;;;;;7393627;19;20006;-77
2022/05/03 10:02:22;;;;;;;3.63;2.83;;;;;;;;;;7401516;19;20007;-77
2022/05/03 10:04:49;;;;;;;3.50;2.60;;;;;;;;;;7398020;19;20172;-78
2022/05/03 10:07:15;;;;;;;2.92;2.30;;;;;;;;;;7401611;19;20046;-76
2022/05/03 10:09:42;;;;;;;6.78;2.72;;;;;;;;;;7399493;19;20002;-77
2022/05/03 10:12:09;;;;;;;3.42;2.50;;;;;;;;;;7397647;19;20475;-78
2022/05/03 10:14:35;;;;;;;2.10;1.88;;;;;;;;;;7398525;19;20070;-78
2022/05/03 10:22:37;;;;;;;1.95;1.77;;;;;;;;;;7399275;19;20046;-78
2022/05/03 10:25:04;;;;;;;3.08;2.00;;;;;;;;;;7398626;19;20019;-78
2022/05/03 10:27:32;;;;;;;3.08;1.75;;;;;;;;;;7396568;19;20006;-78
2022/05/03 10:30:20;;;;;;;2.17;1.45;;;;;;;;;;7399786;19;20011;-78
2022/05/03 10:33:20;;;;;;;1.50;1.40;;;;;;;;;;7399148;19;20542;-78
2022/05/03 10:35:50;;;;;;;1.67;1.48;;;;;;;;;;7394389;19;20016;-78
2022/05/03 10:38:39;;;;;;;3.03;1.30;;;;;;;;;;7398047;19;20072;-79
2022/05/03 10:41:05;;;;;;;1.23;1.00;;;;;;;;;;7396447;19;20007;-78
2022/05/03 10:43:33;;;;;;;1.15;1.05;;;;;;;;;;7398757;19;20003;-77
2022/05/03 10:46:09;;;;;;;4.03;1.33;;;;;;;;;;7398988;19;19995;-79
2022/05/03 10:48:36;;;;;;;3.40;1.52;;;;;;;;;;7401699;19;20040;-78
2022/05/03 10:51:03;;;;;;;1.48;1.10;;;;;;;;;;7408438;19;20006;-80
2022/05/03 10:53:37;;;;;;;1.10;0.98;;;;;;;;;;7415702;19;20014;-79
2022/05/03 10:56:09;;;;;;;1.17;0.77;;;;;;;;;;7415731;19;20315;-79
2022/05/03 10:58:39;;;;;;;3.00;1.10;;;;;;;;;;7418052;19;19999;-78
2022/05/03 11:01:06;;;;;;;1.02;0.93;;;;;;;;;;7417889;19;20062;-80
2022/05/03 11:03:32;;;;;;;4.38;1.10;;;;;;;;;;7416031;19;20095;-79
2022/05/03 11:06:19;;;;;;;2.22;0.93;;;;;;;;;;7411936;19;20002;-79
2022/05/03 11:09:05;;;;;;;1.08;0.90;;;;;;;;;;7414135;19;20009;-78
2022/05/03 11:11:39;;;;;;;1.35;1.25;;;;;;;;;;7411356;19;20007;-79
2022/05/03 11:14:21;;;;;;;1.20;0.90;;;;;;;;;;7414452;19;20005;-78
2022/05/03 11:16:51;;;;;;;1.08;0.90;;;;;;;;;;7411032;19;20133;-77
2022/05/03 11:19:19;;;;;;;2.33;0.90;;;;;;;;;;7416266;19;20002;-78
2022/05/03 11:21:47;;;;;;;3.17;1.15;;;;;;;;;;7412221;19;20002;-78
2022/05/03 11:24:17;;;;;;;1.45;1.02;;;;;;;;;;7415006;19;19998;-79
2022/05/03 11:26:43;;;;;;;1.23;1.05;;;;;;;;;;7408356;19;20036;-78
2022/05/03 11:29:08;;;;;;;2.70;1.00;;;;;;;;;;7414116;19;20070;-78
2022/05/03 11:31:33;;;;;;;1.00;0.90;;;;;;;;;;7412343;19;20011;-78
2022/05/03 11:33:59;;;;;;;3.00;1.48;;;;;;;;;;7416425;19;20027;-78
2022/05/03 11:36:25;;;;;;;1.85;1.38;;;;;;;;;;7412390;19;20120;-78
2022/05/03 11:38:53;;;;;;;1.35;1.10;;;;;;;;;;7413833;19;20026;-79
2022/05/03 11:41:21;;;;;;;0.93;0.93;;;;;;;;;;7410841;19;20136;-79
2022/05/03 11:43:47;;;;;;;1.10;1.00;;;;;;;;;;7412218;19;20295;-78
2022/05/03 11:46:15;;;;;;;1.00;0.90;;;;;;;;;;7408516;19;20023;-79
2022/05/03 11:48:41;;;;;;;1.30;0.82;;;;;;;;;;7412885;19;20003;-78
2022/05/03 11:56:37;;;;;;;1.70;0.80;;;;;;;;;;7409795;19;20029;-78
2022/05/03 11:59:03;;;;;;;2.65;1.00;;;;;;;;;;7411528;19;20011;-80
2022/05/03 12:01:33;;;;;;;1.08;0.90;;;;;;;;;;7406561;19;20062;-79
2022/05/03 12:03:59;;;;;;;1.90;1.00;;;;;;;;;;7404356;19;20450;-78
2022/05/03 12:06:34;;;;;;;1.05;0.95;;;;;;;;;;7402312;19;20078;-80
2022/05/03 12:09:00;;;;;;;1.83;0.90;;;;;;;;;;7407281;19;20471;-78
2022/05/03 12:11:25;;;;;;;1.70;0.80;;;;;;;;;;7404816;19;20046;-78
2022/05/03 12:13:51;;;;;;;1.23;0.80;;;;;;;;;;7408237;19;20088;-78
2022/05/03 12:16:22;;;;;;;2.35;1.00;;;;;;;;;;7402482;19;19999;-79
2022/05/03 12:18:48;;;;;;;1.13;0.70;;;;;;;;;;7399957;19;20120;-78
2022/05/03 12:21:25;;;;;;;3.88;1.15;;;;;;;;;;7400413;19;20018;-78
2022/05/03 12:23:57;;;;;;;1.00;0.82;;;;;;;;;;7407173;19;20011;-78
2022/05/03 12:26:25;;;;;;;1.35;0.93;;;;;;;;;;7402619;19;20002;-78
2022/05/03 12:28:56;;;;;;;1.20;0.77;;;;;;;;;;7397188;19;20009;-77
2022/05/03 12:31:23;;;;;;;2.08;0.70;;;;;;;;;;7401176;19;20454;-78
2022/05/03 12:33:48;;;;;;;1.33;0.80;;;;;;;;;;7400913;19;20487;-78
2022/05/03 12:36:46;;;;;;;0.80;0.80;;;;;;;;;;7397737;19;20009;-78
2022/05/03 12:39:16;;;;;;;1.50;0.98;;;;;;;;;;7398590;19;20476;-78
2022/05/03 12:41:43;;;;;;;5.82;1.48;;;;;;;;;;7399688;19;20630;-78
2022/05/03 12:44:13;;;;;;;1.90;1.00;;;;;;;;;;7400748;19;20045;-79
2022/05/03 12:46:39;;;;;;;1.42;1.30;;;;;;;;;;7396701;19;20077;-78
2022/05/03 12:49:11;;;;;;;1.55;1.23;;;;;;;;;;7406484;19;20050;-78
2022/05/03 12:51:38;;;;;;;1.15;1.00;;;;;;;;;;7403326;19;20027;-78
2022/05/03 12:54:04;;;;;;;1.02;1.00;;;;;;;;;;7404266;19;20348;-78
2022/05/03 12:59:14;;;;;;;8.38;1.10;;;;;;;;;;7400209;19;20070;-78
2022/05/03 13:01:40;;;;;;;2.20;1.40;;;;;;;;;;7396194;19;20132;-78
2022/05/03 13:04:06;;;;;;;1.20;1.10;;;;;;;;;;7394736;19;20043;-78
2022/05/03 13:06:31;;;;;;;1.33;0.98;;;;;;;;;;7397470;19;20010;-78
2022/05/03 13:08:56;;;;;;;2.47;1.00;;;;;;;;;;7397295;19;20427;-78
2022/05/03 13:11:22;;;;;;;1.40;1.10;;;;;;;;;;7394508;19;20518;-77
2022/05/03 13:13:48;;;;;;;1.35;1.20;;;;;;;;;;7391846;19;20027;-77
2022/05/03 13:16:14;;;;;;;1.10;1.00;;;;;;;;;;7395357;19;20042;-78
2022/05/03 13:18:39;;;;;;;2.22;1.25;;;;;;;;;;7394808;19;20289;-78
2022/05/03 13:21:06;;;;;;;1.38;1.17;;;;;;;;;;7395903;19;20006;-77
2022/05/03 13:23:31;;;;;;;1.30;1.00;;;;;;;;;;7395796;19;20433;-81
2022/05/03 13:25:57;;;;;;;2.17;1.10;;;;;;;;;;7396022;19;20010;-77
2022/05/03 13:28:22;;;;;;;1.77;1.00;;;;;;;;;;7395980;19;20427;-78
2022/05/03 13:30:47;;;;;;;1.30;0.98;;;;;;;;;;7396377;19;20022;-77
2022/05/03 13:33:12;;;;;;;3.72;0.93;;;;;;;;;;7395802;19;20395;-78
2022/05/03 13:41:06;;;;;;;1.40;0.70;;;;;;;;;;7395270;19;19997;-78
2022/05/03 13:43:31;;;;;;;0.95;0.90;;;;;;;;;;7397516;19;20006;-78
2022/05/03 13:45:58;;;;;;;1.00;0.90;;;;;;;;;;7394645;19;20011;-77
2022/05/03 13:48:24;;;;;;;1.63;0.90;;;;;;;;;;7395631;19;20035;-78
2022/05/03 13:50:49;;;;;;;0.73;0.73;;;;;;;;;;7395744;19;19999;-78
2022/05/03 13:53:15;;;;;;;1.02;0.93;;;;;;;;;;7396628;19;20075;-78
2022/05/03 13:55:40;;;;;;;1.65;1.08;;;;;;;;;;7392865;19;20332;-78
2022/05/03 13:58:10;;;;;;;2.08;1.08;;;;;;;;;;7395837;19;19999;-77
2022/05/03 14:00:40;;;;;;;0.70;0.70;;;;;;;;;;7392162;19;20102;-78
2022/05/03 14:03:07;;;;;;;1.67;1.00;;;;;;;;;;7395089;19;20022;-78
2022/05/03 14:05:34;;;;;;;0.93;0.90;;;;;;;;;;7395673;19;20027;-78
2022/05/03 14:07:59;;;;;;;0.93;0.93;;;;;;;;;;7396773;19;20006;-78
2022/05/03 14:10:24;;;;;;;2.17;0.90;;;;;;;;;;7393624;19;20034;-78
2022/05/03 14:12:50;;;;;;;1.13;1.05;;;;;;;;;;7395637;19;20048;-79
2022/05/03 14:15:15;;;;;;;1.52;1.10;;;;;;;;;;7393804;19;20041;-78
2022/05/03 14:17:41;;;;;;;2.15;1.23;;;;;;;;;;7394802;19;20078;-77
2022/05/03 14:20:08;;;;;;;3.72;0.90;;;;;;;;;;7391825;19;19991;-78
2022/05/03 14:22:33;;;;;;;2.45;1.00;;;;;;;;;;7391789;19;20010;-77
2022/05/03 14:24:58;;;;;;;1.08;0.98;;;;;;;;;;7393261;19;20009;-78
2022/05/03 14:27:24;;;;;;;2.10;1.00;;;;;;;;;;7397409;19;19994;-79
2022/05/03 14:29:49;;;;;;;0.88;0.80;;;;;;;;;;7394881;19;20341;-79
2022/05/03 14:32:15;;;;;;;3.65;1.00;;;;;;;;;;7399829;19;20011;-78
2022/05/03 14:34:41;;;;;;;1.23;1.00;;;;;;;;;;7396088;19;19998;-79
2022/05/03 14:37:06;;;;;;;2.25;1.00;;;;;;;;;;7394928;19;20078;-79
2022/05/03 14:39:31;;;;;;;1.48;1.02;;;;;;;;;;7393792;19;19995;-79
2022/05/03 14:41:59;;;;;;;1.30;1.10;;;;;;;;;;7399655;19;20013;-79
2022/05/03 14:44:24;;;;;;;0.90;0.90;;;;;;;;;;7398842;19;20029;-79
2022/05/03 14:46:50;;;;;;;2.17;1.05;;;;;;;;;;7402310;19;20395;-79
2022/05/03 14:49:15;;;;;;;1.35;1.15;;;;;;;;;;7402432;19;20028;-79
2022/05/03 14:51:40;;;;;;;1.70;1.25;;;;;;;;;;7405680;19;20002;-80
2022/05/03 14:54:06;;;;;;;2.08;1.30;;;;;;;;;;7400368;19;20036;-79
2022/05/03 15:04:44;;;;;;;1.70;1.23;;;;;;;;;;7400606;19;20131;-80
2022/05/03 15:07:10;;;;;;;1.40;1.30;;;;;;;;;;7400691;19;20022;-79
2022/05/03 15:09:35;;;;;;;1.50;1.20;;;;;;;;;;7399865;19;20007;-80
2022/05/03 15:12:00;;;;;;;1.08;1.08;;;;;;;;;;7397098;19;20443;-79
2022/05/03 15:14:26;;;;;;;1.30;1.17;;;;;;;;;;7403960;19;20065;-80
2022/05/03 15:16:51;;;;;;;2.35;1.20;;;;;;;;;;7416635;19;20007;-79
2022/05/03 15:19:17;;;;;;;1.40;1.30;;;;;;;;;;7418322;19;19990;-79
2022/05/03 15:21:42;;;;;;;3.53;1.30;;;;;;;;;;7417823;19;20002;-80
2022/05/03 15:26:52;;;;;;;1.75;1.00;;;;;;;;;;7397557;19;20036;-81
2022/05/03 15:29:17;;;;;;;1.55;1.08;;;;;;;;;;7398343;19;20480;-79
2022/05/03 15:31:43;;;;;;;2.03;1.27;;;;;;;;;;7390877;19;20324;-79
2022/05/03 15:34:10;;;;;;;1.17;1.08;;;;;;;;;;7394039;19;19994;-79
2022/05/03 15:36:35;;;;;;;1.65;1.20;;;;;;;;;;7393601;19;20019;-78
2022/05/03 15:39:00;;;;;;;2.03;1.17;;;;;;;;;;7401175;19;19995;-79
2022/05/03 15:41:26;;;;;;;3.33;1.08;;;;;;;;;;7394012;19;20349;-78
2022/05/03 15:43:51;;;;;;;0.90;0.90;;;;;;;;;;7401288;19;19995;-78
2022/05/03 15:46:18;;;;;;;1.40;1.30;;;;;;;;;;7399105;19;20034;-78